Portada
METAR-TAF:

METAR-TAF

Aeropuertos :

Aeropuerto Internacional de Jacksons

Port Moresby, Papúa Nueva Guinea

latitud: 09-26S, longitud: 147-13E, altitud: 38 m

Observación

El informe se hizo hace 2 horas y 3 minutos, a las 05:00 UTC
Viento 20 kt del sur-sureste con ráfagas de 30 kt
Temperatura 30°C
Humedad 66%
Presión 1006 hPa
Visibilidad 10 km o más
Nubes dispersas a una altura de 3000 ft

METAR: AYPY 200500Z 15020G30KT 9999 FUHZ SCT030 30/23 Q1006

Hora: 17:03 (07:03 UTC)

Pronóstico

El informe se hizo hace 3 horas y 33 minutos, a las 03:30 UTC
Pronóstico válido del 20 a las 06 UTC al 21 a las 06 UTC
Viento 15 kt del sur-sureste con ráfagas de 25 kt
Visibilidad 10 km o más
Nubes dispersas a una altura de 1800 ft
Cielo nuboso a una altura de 14000 ft

TAF: AYPY 200330Z 2006/2106 16015G25KT 9999 SCT018 BKN140

Observaciones y pronósticos meteorológicos de más de 4000 aeropuertos (mensajes METAR y TAF).

Los puntos amarillos y rojos representan las estaciones disponibles.

Ponga el ratón en el punto deseado para ver el nombre de la estación.

Haga clic para ver las observaciones y los pronósticos meteorológicos.

Para cambiar el mapa : haga clic en los botones verdes con una cruz de color negro para hacer un zoom, en el botón verde con un guión para alejar o en las flechas verdes para mapas adyacentes.


METAR-TAF: